N27 weather

Bradford County Airport
Towanda, Pennsylvania, United States

Public forecast

Using degrees Fahrenheit for public forecast. Weather courtesy of forecast.io.

Closest aviation weather report (METAR) to Bradford County Airport

Closest report is Elmira Corning Regional Airport, 32.1 nm (59.4 km) NW. Retrieved 2019/10/19 10:38 UTC (16 minutes ago):

KELM 191038Z 26003KT 1/2SM R24/1600V2000FT FG VV002 01/01 A3008 RMK AO2 T00110011

Closest aviation forecast (TAF) to Bradford County Airport

Closest forecast is Elmira Corning Regional Airport, 32.1 nm (59.4 km) NW. Retrieved 2019/10/19 06:22 UTC (5 hours ago):

TAF KELM 190520Z 1906/2006 24003KT P6SM SKC TEMPO 1909/1912 3SM BR FM191300 16004KT P6SM SCT250